Terminal Aerodrome Forecast
Issued by NWS

Current Version | Previous Version | Graphics & Text | Print | Product List | Glossary On
Versions: 1 2 3 4 5 6 7 8 9 10 11 12 13 14 15 16 17 18 19 20 21 22 23 24 25 26 27 28
000
FTUS41 KILN 270500
TAFLUK
TAF
KLUK 270520Z 2706/2806 21006KT P6SM BKN050 OVC110
     FM270800 20005KT 6SM BR FEW004 SCT100
     FM271300 21010KT P6SM SCT030 BKN100
     FM271700 24012G22KT P6SM -SHRA VCTS BKN035CB
     FM272200 27014G23KT P6SM BKN040
     FM280100 27010KT P6SM SCT050 BKN250=

USA.gov is the U.S. government's official web portal to all federal, state and local government web resources and services.